sensor_id;sensor_type;location;lat;lon;timestamp;pressure;altitude;pressure_sealevel;temperature;humidity
68859;BME280;55864;49.238;8.092;2023-01-27T00:00:19;99820.31;;;0.86;83.43
68859;BME280;55864;49.238;8.092;2023-01-27T00:02:19;99817.81;;;0.84;83.55
68859;BME280;55864;49.238;8.092;2023-01-27T00:04:20;99823.69;;;0.88;83.63
68859;BME280;55864;49.238;8.092;2023-01-27T00:06:20;99814.19;;;0.88;83.66
68859;BME280;55864;49.238;8.092;2023-01-27T00:08:22;99815.91;;;0.88;83.22
68859;BME280;55864;49.238;8.092;2023-01-27T00:10:24;99816.84;;;0.87;83.27
68859;BME280;55864;49.238;8.092;2023-01-27T00:12:25;99817.66;;;0.87;83.42
68859;BME280;55864;49.238;8.092;2023-01-27T00:14:26;99822.72;;;0.90;84.24
68859;BME280;55864;49.238;8.092;2023-01-27T00:16:26;99815.63;;;0.94;83.46
68859;BME280;55864;49.238;8.092;2023-01-27T00:18:27;99813.91;;;0.94;83.60
68859;BME280;55864;49.238;8.092;2023-01-27T00:20:28;99809.00;;;0.88;83.44
68859;BME280;55864;49.238;8.092;2023-01-27T00:22:28;99816.59;;;0.91;83.21
68859;BME280;55864;49.238;8.092;2023-01-27T00:24:30;99810.97;;;0.83;82.20
68859;BME280;55864;49.238;8.092;2023-01-27T00:26:30;99808.81;;;0.74;82.61
68859;BME280;55864;49.238;8.092;2023-01-27T00:28:31;99816.94;;;0.67;82.48
68859;BME280;55864;49.238;8.092;2023-01-27T00:30:31;99808.94;;;0.54;82.36
68859;BME280;55864;49.238;8.092;2023-01-27T00:32:32;99804.88;;;0.49;82.44
68859;BME280;55864;49.238;8.092;2023-01-27T00:34:32;99808.22;;;0.51;83.48
68859;BME280;55864;49.238;8.092;2023-01-27T00:36:34;99807.09;;;0.56;84.47
68859;BME280;55864;49.238;8.092;2023-01-27T00:38:35;99805.97;;;0.62;84.80
68859;BME280;55864;49.238;8.092;2023-01-27T00:40:37;99802.34;;;0.66;85.01
68859;BME280;55864;49.238;8.092;2023-01-27T00:42:37;99801.31;;;0.70;85.04
68859;BME280;55864;49.238;8.092;2023-01-27T00:44:38;99796.13;;;0.70;85.29
68859;BME280;55864;49.238;8.092;2023-01-27T00:46:39;99803.47;;;0.60;84.37
68859;BME280;55864;49.238;8.092;2023-01-27T00:48:42;99801.38;;;0.50;84.22
68859;BME280;55864;49.238;8.092;2023-01-27T00:50:43;99799.91;;;0.44;84.40
68859;BME280;55864;49.238;8.092;2023-01-27T00:52:43;99801.72;;;0.42;84.08
68859;BME280;55864;49.238;8.092;2023-01-27T00:54:44;99796.72;;;0.39;84.32
68859;BME280;55864;49.238;8.092;2023-01-27T00:56:46;99801.13;;;0.37;84.06
68859;BME280;55864;49.238;8.092;2023-01-27T00:58:47;99800.50;;;0.32;84.69
68859;BME280;55864;49.238;8.092;2023-01-27T01:00:47;99798.88;;;0.30;85.00
68859;BME280;55864;49.238;8.092;2023-01-27T01:02:48;99803.19;;;0.29;84.95
68859;BME280;55864;49.238;8.092;2023-01-27T01:04:48;99803.34;;;0.26;84.80
68859;BME280;55864;49.238;8.092;2023-01-27T01:06:49;99810.19;;;0.27;85.23
68859;BME280;55864;49.238;8.092;2023-01-27T01:08:49;99809.28;;;0.28;85.38
68859;BME280;55864;49.238;8.092;2023-01-27T01:10:50;99807.59;;;0.27;85.15
68859;BME280;55864;49.238;8.092;2023-01-27T01:12:52;99807.69;;;0.26;85.40
68859;BME280;55864;49.238;8.092;2023-01-27T01:14:52;99807.81;;;0.23;85.28
68859;BME280;55864;49.238;8.092;2023-01-27T01:16:53;99806.13;;;0.22;85.21
68859;BME280;55864;49.238;8.092;2023-01-27T01:18:54;99810.53;;;0.20;85.70
68859;BME280;55864;49.238;8.092;2023-01-27T01:20:54;99798.56;;;0.17;85.62
68859;BME280;55864;49.238;8.092;2023-01-27T01:22:55;99804.75;;;0.15;86.04
68859;BME280;55864;49.238;8.092;2023-01-27T01:24:55;99803.06;;;0.14;86.60
68859;BME280;55864;49.238;8.092;2023-01-27T01:26:56;99804.84;;;0.12;86.42
68859;BME280;55864;49.238;8.092;2023-01-27T01:28:59;99805.00;;;0.09;86.46
68859;BME280;55864;49.238;8.092;2023-01-27T01:31:03;99802.28;;;0.12;86.38
68859;BME280;55864;49.238;8.092;2023-01-27T01:33:04;99800.53;;;0.12;86.51
68859;BME280;55864;49.238;8.092;2023-01-27T01:35:05;99801.59;;;0.08;86.55
68859;BME280;55864;49.238;8.092;2023-01-27T01:37:06;99804.94;;;0.10;87.08
68859;BME280;55864;49.238;8.092;2023-01-27T01:39:06;99800.69;;;0.28;87.55
68859;BME280;55864;49.238;8.092;2023-01-27T01:41:09;99799.84;;;0.27;86.17
68859;BME280;55864;49.238;8.092;2023-01-27T01:43:13;99799.94;;;0.26;85.97
68859;BME280;55864;49.238;8.092;2023-01-27T01:47:37;99805.59;;;0.15;86.35
68859;BME280;55864;49.238;8.092;2023-01-27T01:49:39;99802.16;;;0.15;86.46
68859;BME280;55864;49.238;8.092;2023-01-27T01:51:42;99802.22;;;0.32;86.88
68859;BME280;55864;49.238;8.092;2023-01-27T01:53:49;99803.19;;;0.29;86.47
68859;BME280;55864;49.238;8.092;2023-01-27T01:55:52;99799.84;;;0.27;85.94
68859;BME280;55864;49.238;8.092;2023-01-27T01:57:53;99797.53;;;0.21;86.04
68859;BME280;55864;49.238;8.092;2023-01-27T01:59:57;99802.78;;;0.20;86.47
68859;BME280;55864;49.238;8.092;2023-01-27T02:02:02;99799.56;;;0.15;86.48
68859;BME280;55864;49.238;8.092;2023-01-27T02:04:09;99800.63;;;0.11;86.64
68859;BME280;55864;49.238;8.092;2023-01-27T02:06:16;99797.34;;;0.07;86.64
68859;BME280;55864;49.238;8.092;2023-01-27T02:08:20;99798.88;;;0.11;87.18
68859;BME280;55864;49.238;8.092;2023-01-27T02:10:24;99798.09;;;0.28;87.19
68859;BME280;55864;49.238;8.092;2023-01-27T02:12:25;99811.94;;;0.45;87.34
68859;BME280;55864;49.238;8.092;2023-01-27T02:14:25;99812.75;;;0.46;85.97
68859;BME280;55864;49.238;8.092;2023-01-27T02:16:27;99812.47;;;0.52;86.04
68859;BME280;55864;49.238;8.092;2023-01-27T02:18:28;99806.78;;;0.45;85.09
68859;BME280;55864;49.238;8.092;2023-01-27T02:20:36;99802.94;;;0.35;85.35
68859;BME280;55864;49.238;8.092;2023-01-27T02:22:43;99795.38;;;0.31;85.78
68859;BME280;55864;49.238;8.092;2023-01-27T02:24:49;99793.91;;;0.25;85.55
68859;BME280;55864;49.238;8.092;2023-01-27T02:26:53;99785.63;;;0.19;86.19
68859;BME280;55864;49.238;8.092;2023-01-27T02:28:55;99781.34;;;0.18;86.33
68859;BME280;55864;49.238;8.092;2023-01-27T02:30:56;99784.16;;;0.13;86.19
68859;BME280;55864;49.238;8.092;2023-01-27T02:32:57;99785.97;;;0.11;86.49
68859;BME280;55864;49.238;8.092;2023-01-27T02:34:58;99777.66;;;0.23;86.74
68859;BME280;55864;49.238;8.092;2023-01-27T02:37:03;99781.00;;;0.25;86.25
68859;BME280;55864;49.238;8.092;2023-01-27T02:39:07;99793.13;;;0.42;85.91
68859;BME280;55864;49.238;8.092;2023-01-27T02:41:12;99788.03;;;0.40;85.45
68859;BME280;55864;49.238;8.092;2023-01-27T02:43:15;99794.25;;;0.36;85.33
68859;BME280;55864;49.238;8.092;2023-01-27T02:45:16;99797.75;;;0.35;85.97
68859;BME280;55864;49.238;8.092;2023-01-27T02:47:17;99791.75;;;0.35;85.68
68859;BME280;55864;49.238;8.092;2023-01-27T02:49:17;99788.19;;;0.37;85.77
68859;BME280;55864;49.238;8.092;2023-01-27T02:51:18;99794.22;;;0.38;85.41
68859;BME280;55864;49.238;8.092;2023-01-27T02:53:19;99799.63;;;0.50;85.93
68859;BME280;55864;49.238;8.092;2023-01-27T02:55:19;99792.91;;;0.65;85.73
68859;BME280;55864;49.238;8.092;2023-01-27T02:57:21;99796.81;;;0.73;85.09
68859;BME280;55864;49.238;8.092;2023-01-27T02:59:39;99794.06;;;0.76;84.20
68859;BME280;55864;49.238;8.092;2023-01-27T03:01:40;99792.81;;;0.66;83.67
68859;BME280;55864;49.238;8.092;2023-01-27T03:03:40;99795.38;;;0.68;84.93
68859;BME280;55864;49.238;8.092;2023-01-27T03:05:41;99793.31;;;0.74;84.19
68859;BME280;55864;49.238;8.092;2023-01-27T03:07:42;99787.94;;;0.79;83.94
68859;BME280;55864;49.238;8.092;2023-01-27T03:09:42;99790.88;;;0.71;83.95
68859;BME280;55864;49.238;8.092;2023-01-27T03:11:43;99793.88;;;0.81;84.07
68859;BME280;55864;49.238;8.092;2023-01-27T03:13:43;99792.03;;;0.83;83.80
68859;BME280;55864;49.238;8.092;2023-01-27T03:15:46;99803.91;;;0.87;83.86
68859;BME280;55864;49.238;8.092;2023-01-27T03:17:46;99805.38;;;0.92;84.28
68859;BME280;55864;49.238;8.092;2023-01-27T03:19:47;99801.00;;;0.93;83.29
68859;BME280;55864;49.238;8.092;2023-01-27T03:21:47;99803.97;;;0.85;83.09
68859;BME280;55864;49.238;8.092;2023-01-27T03:23:48;99807.41;;;0.86;83.84
68859;BME280;55864;49.238;8.092;2023-01-27T03:25:53;99805.78;;;0.83;83.63
68859;BME280;55864;49.238;8.092;2023-01-27T03:27:54;99804.72;;;0.87;83.67
68859;BME280;55864;49.238;8.092;2023-01-27T03:30:16;99804.91;;;0.84;83.24
68859;BME280;55864;49.238;8.092;2023-01-27T03:32:29;99803.06;;;0.86;83.83
68859;BME280;55864;49.238;8.092;2023-01-27T03:34:51;99804.97;;;0.83;83.78
68859;BME280;55864;49.238;8.092;2023-01-27T03:37:01;99798.28;;;0.79;83.66
68859;BME280;55864;49.238;8.092;2023-01-27T03:39:02;99797.78;;;0.71;83.54
68859;BME280;55864;49.238;8.092;2023-01-27T03:41:02;99797.19;;;0.66;83.94
68859;BME280;55864;49.238;8.092;2023-01-27T03:43:03;99794.94;;;0.58;84.23
68859;BME280;55864;49.238;8.092;2023-01-27T03:45:05;99807.22;;;0.53;84.40
68859;BME280;55864;49.238;8.092;2023-01-27T03:47:06;99805.78;;;0.48;84.76
68859;BME280;55864;49.238;8.092;2023-01-27T03:49:07;99805.84;;;0.46;84.78
68859;BME280;55864;49.238;8.092;2023-01-27T03:51:09;99803.97;;;0.50;85.18
68859;BME280;55864;49.238;8.092;2023-01-27T03:53:10;99802.72;;;0.58;85.16
68859;BME280;55864;49.238;8.092;2023-01-27T03:55:10;99799.59;;;0.69;85.09
68859;BME280;55864;49.238;8.092;2023-01-27T03:57:11;99801.75;;;0.78;85.36
68859;BME280;55864;49.238;8.092;2023-01-27T03:59:11;99805.03;;;0.81;85.40
68859;BME280;55864;49.238;8.092;2023-01-27T04:01:14;99810.91;;;0.85;84.83
68859;BME280;55864;49.238;8.092;2023-01-27T04:03:14;99809.00;;;0.88;84.87
68859;BME280;55864;49.238;8.092;2023-01-27T04:05:16;99809.81;;;0.89;84.41
68859;BME280;55864;49.238;8.092;2023-01-27T04:07:17;99807.19;;;0.90;84.69
68859;BME280;55864;49.238;8.092;2023-01-27T04:09:20;99816.78;;;0.88;84.65
68859;BME280;55864;49.238;8.092;2023-01-27T04:11:21;99811.34;;;0.93;85.17
68859;BME280;55864;49.238;8.092;2023-01-27T04:13:22;99809.63;;;0.93;84.87
68859;BME280;55864;49.238;8.092;2023-01-27T04:15:22;99819.19;;;0.91;84.83
68859;BME280;55864;49.238;8.092;2023-01-27T04:17:23;99813.19;;;0.91;85.00
68859;BME280;55864;49.238;8.092;2023-01-27T04:19:24;99808.25;;;0.86;84.69
68859;BME280;55864;49.238;8.092;2023-01-27T04:21:25;99815.16;;;0.86;85.25
68859;BME280;55864;49.238;8.092;2023-01-27T04:23:26;99815.31;;;0.83;85.45
68859;BME280;55864;49.238;8.092;2023-01-27T04:25:26;99813.63;;;0.82;85.70
68859;BME280;55864;49.238;8.092;2023-01-27T04:27:27;99819.47;;;0.85;86.25
68859;BME280;55864;49.238;8.092;2023-01-27T04:29:32;99822.72;;;0.90;86.37
68859;BME280;55864;49.238;8.092;2023-01-27T04:31:32;99815.72;;;0.92;86.31
68859;BME280;55864;49.238;8.092;2023-01-27T04:33:33;99821.00;;;0.89;86.08
68859;BME280;55864;49.238;8.092;2023-01-27T04:35:43;99820.13;;;0.90;85.52
68859;BME280;55864;49.238;8.092;2023-01-27T04:37:47;99817.75;;;0.86;85.48
68859;BME280;55864;49.238;8.092;2023-01-27T04:39:48;99819.34;;;0.88;85.93
68859;BME280;55864;49.238;8.092;2023-01-27T04:41:49;99821.84;;;0.90;85.65
68859;BME280;55864;49.238;8.092;2023-01-27T04:43:49;99822.72;;;0.90;85.76
68859;BME280;55864;49.238;8.092;2023-01-27T04:45:50;99817.66;;;0.87;85.93
68859;BME280;55864;49.238;8.092;2023-01-27T04:47:51;99821.09;;;0.88;86.10
68859;BME280;55864;49.238;8.092;2023-01-27T04:49:51;99822.72;;;0.90;85.97
68859;BME280;55864;49.238;8.092;2023-01-27T04:51:51;99822.53;;;0.93;86.18
68859;BME280;55864;49.238;8.092;2023-01-27T04:53:53;99824.28;;;0.93;85.56
68859;BME280;55864;49.238;8.092;2023-01-27T04:56:00;99828.78;;;0.89;85.83
68859;BME280;55864;49.238;8.092;2023-01-27T04:58:01;99829.63;;;0.90;86.11
68859;BME280;55864;49.238;8.092;2023-01-27T05:00:03;99827.88;;;0.90;86.43
68859;BME280;55864;49.238;8.092;2023-01-27T05:02:04;99833.03;;;0.90;86.35
68859;BME280;55864;49.238;8.092;2023-01-27T05:04:04;99834.72;;;0.91;87.13
68859;BME280;55864;49.238;8.092;2023-01-27T05:06:05;99825.97;;;0.94;86.79
68859;BME280;55864;49.238;8.092;2023-01-27T05:08:08;99829.25;;;0.98;86.21
68859;BME280;55864;49.238;8.092;2023-01-27T05:10:11;99828.19;;;1.02;86.32
68859;BME280;55864;49.238;8.092;2023-01-27T05:12:11;99834.25;;;1.01;86.37
68859;BME280;55864;49.238;8.092;2023-01-27T05:14:12;99837.63;;;1.03;86.09
68859;BME280;55864;49.238;8.092;2023-01-27T05:16:14;99833.38;;;1.02;86.01
68859;BME280;55864;49.238;8.092;2023-01-27T05:18:15;99835.09;;;1.01;86.09
68859;BME280;55864;49.238;8.092;2023-01-27T05:20:16;99831.63;;;1.02;86.54
68859;BME280;55864;49.238;8.092;2023-01-27T05:22:17;99830.63;;;1.05;86.83
68859;BME280;55864;49.238;8.092;2023-01-27T05:24:17;99822.06;;;1.04;86.18
68859;BME280;55864;49.238;8.092;2023-01-27T05:26:20;99835.78;;;1.05;86.73
68859;BME280;55864;49.238;8.092;2023-01-27T05:28:21;99846.13;;;1.05;86.61
68859;BME280;55864;49.238;8.092;2023-01-27T05:30:22;99844.47;;;1.04;86.53
68859;BME280;55864;49.238;8.092;2023-01-27T05:32:22;99846.31;;;1.02;86.67
68859;BME280;55864;49.238;8.092;2023-01-27T05:34:23;99845.31;;;1.04;86.46
68859;BME280;55864;49.238;8.092;2023-01-27T05:36:24;99848.81;;;1.03;85.57
68859;BME280;55864;49.238;8.092;2023-01-27T05:38:25;99845.31;;;1.04;85.87
68859;BME280;55864;49.238;8.092;2023-01-27T05:40:25;99849.50;;;1.07;86.36
68859;BME280;55864;49.238;8.092;2023-01-27T05:42:27;99848.59;;;1.08;86.73
68859;BME280;55864;49.238;8.092;2023-01-27T05:44:28;99851.19;;;1.08;86.61
68859;BME280;55864;49.238;8.092;2023-01-27T05:46:30;99852.00;;;1.08;86.55
68859;BME280;55864;49.238;8.092;2023-01-27T05:48:31;99853.69;;;1.09;87.15
68859;BME280;55864;49.238;8.092;2023-01-27T05:50:32;99848.59;;;1.08;86.92
68859;BME280;55864;49.238;8.092;2023-01-27T05:52:32;99849.38;;;1.10;86.50
68859;BME280;55864;49.238;8.092;2023-01-27T05:54:33;99850.19;;;1.10;86.72
68859;BME280;55864;49.238;8.092;2023-01-27T05:56:34;99844.97;;;1.12;86.13
68859;BME280;55864;49.238;8.092;2023-01-27T05:58:36;99844.88;;;1.13;86.06
68859;BME280;55864;49.238;8.092;2023-01-27T06:00:36;99857.88;;;1.12;86.40
68859;BME280;55864;49.238;8.092;2023-01-27T06:02:37;99859.56;;;1.13;85.83
68859;BME280;55864;49.238;8.092;2023-01-27T06:04:37;99857.72;;;1.15;86.09
68859;BME280;55864;49.238;8.092;2023-01-27T06:06:38;99848.22;;;1.15;85.94
68859;BME280;55864;49.238;8.092;2023-01-27T06:08:39;99853.16;;;1.20;85.63
68859;BME280;55864;49.238;8.092;2023-01-27T06:10:40;99860.78;;;1.23;85.46
68859;BME280;55864;49.238;8.092;2023-01-27T06:12:40;99861.56;;;1.25;85.07
68859;BME280;55864;49.238;8.092;2023-01-27T06:14:42;99862.38;;;1.25;85.89
68859;BME280;55864;49.238;8.092;2023-01-27T06:16:43;99853.03;;;1.23;85.31
68859;BME280;55864;49.238;8.092;2023-01-27T06:18:44;99868.41;;;1.26;85.53
68859;BME280;55864;49.238;8.092;2023-01-27T06:20:45;99872.69;;;1.27;85.67
68859;BME280;55864;49.238;8.092;2023-01-27T06:22:45;99875.25;;;1.27;85.76
68859;BME280;55864;49.238;8.092;2023-01-27T06:24:46;99872.72;;;1.25;85.61
68859;BME280;55864;49.238;8.092;2023-01-27T06:26:46;99875.09;;;1.30;85.80
68859;BME280;55864;49.238;8.092;2023-01-27T06:28:47;99879.34;;;1.31;85.70
68859;BME280;55864;49.238;8.092;2023-01-27T06:30:49;99872.34;;;1.33;85.62
68859;BME280;55864;49.238;8.092;2023-01-27T06:32:49;99869.16;;;1.28;85.82
68859;BME280;55864;49.238;8.092;2023-01-27T06:34:50;99876.06;;;1.27;85.60
68859;BME280;55864;49.238;8.092;2023-01-27T06:36:52;99878.63;;;1.29;85.39
68859;BME280;55864;49.238;8.092;2023-01-27T06:38:52;99874.19;;;1.31;84.90
68859;BME280;55864;49.238;8.092;2023-01-27T06:40:53;99874.19;;;1.31;85.10
68859;BME280;55864;49.238;8.092;2023-01-27T06:42:54;99878.28;;;1.35;85.71
68859;BME280;55864;49.238;8.092;2023-01-27T06:44:54;99879.13;;;1.35;85.07
68859;BME280;55864;49.238;8.092;2023-01-27T06:46:56;99883.41;;;1.36;84.84
68859;BME280;55864;49.238;8.092;2023-01-27T06:48:56;99883.53;;;1.33;84.95
68859;BME280;55864;49.238;8.092;2023-01-27T06:50:57;99878.25;;;1.36;84.87
68859;BME280;55864;49.238;8.092;2023-01-27T06:52:58;99886.75;;;1.38;84.54
68859;BME280;55864;49.238;8.092;2023-01-27T06:54:59;99886.59;;;1.41;84.64
68859;BME280;55864;49.238;8.092;2023-01-27T06:57:00;99888.22;;;1.44;84.81
68859;BME280;55864;49.238;8.092;2023-01-27T06:59:00;99889.97;;;1.43;84.25
68859;BME280;55864;49.238;8.092;2023-01-27T07:01:03;99896.81;;;1.44;84.60
68859;BME280;55864;49.238;8.092;2023-01-27T07:03:06;99891.53;;;1.46;84.42
68859;BME280;55864;49.238;8.092;2023-01-27T07:05:06;99900.06;;;1.48;83.80
68859;BME280;55864;49.238;8.092;2023-01-27T07:07:07;99910.41;;;1.48;84.23
68859;BME280;55864;49.238;8.092;2023-01-27T07:09:07;99905.25;;;1.48;83.91
68859;BME280;55864;49.238;8.092;2023-01-27T07:11:08;99909.59;;;1.47;83.70
68859;BME280;55864;49.238;8.092;2023-01-27T07:13:10;99913.16;;;1.45;83.86
68859;BME280;55864;49.238;8.092;2023-01-27T07:15:11;99914.09;;;1.44;84.29
68859;BME280;55864;49.238;8.092;2023-01-27T07:17:11;99907.44;;;1.38;84.45
68859;BME280;55864;49.238;8.092;2023-01-27T07:19:14;99911.63;;;1.41;83.90
68859;BME280;55864;49.238;8.092;2023-01-27T07:21:15;99909.75;;;1.44;84.34
68859;BME280;55864;49.238;8.092;2023-01-27T07:23:15;99913.16;;;1.45;84.24
68859;BME280;55864;49.238;8.092;2023-01-27T07:25:16;99911.44;;;1.45;83.90
68859;BME280;55864;49.238;8.092;2023-01-27T07:27:16;99916.38;;;1.50;83.68
68859;BME280;55864;49.238;8.092;2023-01-27T07:29:17;99906.84;;;1.50;83.40
68859;BME280;55864;49.238;8.092;2023-01-27T07:31:17;99912.72;;;1.54;83.79
68859;BME280;55864;49.238;8.092;2023-01-27T07:33:18;99913.66;;;1.53;83.50
68859;BME280;55864;49.238;8.092;2023-01-27T07:35:20;99912.63;;;1.55;83.38
68859;BME280;55864;49.238;8.092;2023-01-27T07:37:21;99911.75;;;1.56;83.51
68859;BME280;55864;49.238;8.092;2023-01-27T07:39:22;99915.09;;;1.58;83.08
68859;BME280;55864;49.238;8.092;2023-01-27T07:41:23;99927.97;;;1.60;83.13
68859;BME280;55864;49.238;8.092;2023-01-27T07:43:23;99927.06;;;1.61;83.23
68859;BME280;55864;49.238;8.092;2023-01-27T07:45:24;99932.97;;;1.63;82.95
68859;BME280;55864;49.238;8.092;2023-01-27T07:47:25;99936.56;;;1.60;82.42
68859;BME280;55864;49.238;8.092;2023-01-27T07:49:26;99934.28;;;1.54;82.89
68859;BME280;55864;49.238;8.092;2023-01-27T07:51:27;99938.59;;;1.54;83.04
68859;BME280;55864;49.238;8.092;2023-01-27T07:53:28;99945.53;;;1.53;83.42
68859;BME280;55864;49.238;8.092;2023-01-27T07:55:29;99942.88;;;1.55;83.17
68859;BME280;55864;49.238;8.092;2023-01-27T07:57:31;99948.97;;;1.54;83.37
68859;BME280;55864;49.238;8.092;2023-01-27T07:59:31;99945.38;;;1.56;83.22
68859;BME280;55864;49.238;8.092;2023-01-27T08:01:32;99948.66;;;1.60;83.14
68859;BME280;55864;49.238;8.092;2023-01-27T08:03:32;99955.53;;;1.61;83.16
68859;BME280;55864;49.238;8.092;2023-01-27T08:05:33;99951.16;;;1.61;82.77
68859;BME280;55864;49.238;8.092;2023-01-27T08:07:35;99949.50;;;1.60;82.51
68859;BME280;55864;49.238;8.092;2023-01-27T08:09:36;99954.78;;;1.59;83.45
68859;BME280;55864;49.238;8.092;2023-01-27T08:11:36;99957.19;;;1.62;83.64
68859;BME280;55864;49.238;8.092;2023-01-27T08:13:37;99963.22;;;1.62;83.95
68859;BME280;55864;49.238;8.092;2023-01-27T08:15:37;99958.88;;;1.63;84.20
68859;BME280;55864;49.238;8.092;2023-01-27T08:17:38;99959.72;;;1.63;84.92
68859;BME280;55864;49.238;8.092;2023-01-27T08:19:39;99958.94;;;1.61;84.88
68859;BME280;55864;49.238;8.092;2023-01-27T08:21:39;99962.38;;;1.62;84.66
68859;BME280;55864;49.238;8.092;2023-01-27T08:23:41;99962.75;;;1.54;84.33
68859;BME280;55864;49.238;8.092;2023-01-27T08:25:48;99964.47;;;1.54;83.74
68859;BME280;55864;49.238;8.092;2023-01-27T08:27:49;99968.81;;;1.53;83.82
68859;BME280;55864;49.238;8.092;2023-01-27T08:29:50;99968.13;;;1.50;84.12
68859;BME280;55864;49.238;8.092;2023-01-27T08:31:50;99973.38;;;1.48;83.04
68859;BME280;55864;49.238;8.092;2023-01-27T08:33:52;99976.13;;;1.45;82.79
68859;BME280;55864;49.238;8.092;2023-01-27T08:35:53;99977.09;;;1.43;83.12
68859;BME280;55864;49.238;8.092;2023-01-27T08:37:53;99971.94;;;1.43;82.17
68859;BME280;55864;49.238;8.092;2023-01-27T08:39:55;99977.31;;;1.38;82.14
68859;BME280;55864;49.238;8.092;2023-01-27T08:41:56;99980.06;;;1.35;82.20
68859;BME280;55864;49.238;8.092;2023-01-27T08:43:56;99979.22;;;1.35;82.77
68859;BME280;55864;49.238;8.092;2023-01-27T08:45:57;99974.00;;;1.36;82.55
68859;BME280;55864;49.238;8.092;2023-01-27T08:47:58;99973.81;;;1.39;82.64
68859;BME280;55864;49.238;8.092;2023-01-27T08:49:59;99983.34;;;1.39;82.10
68859;BME280;55864;49.238;8.092;2023-01-27T08:51:59;99983.63;;;1.33;80.90
68859;BME280;55864;49.238;8.092;2023-01-27T08:54:00;99982.16;;;1.27;81.69
68859;BME280;55864;49.238;8.092;2023-01-27T08:56:04;99977.81;;;1.28;82.24
68859;BME280;55864;49.238;8.092;2023-01-27T08:58:05;99981.47;;;1.24;81.29
68859;BME280;55864;49.238;8.092;2023-01-27T09:00:07;99983.44;;;1.19;81.60
68859;BME280;55864;49.238;8.092;2023-01-27T09:02:08;99982.75;;;1.15;81.30
68859;BME280;55864;49.238;8.092;2023-01-27T09:04:09;99975.94;;;1.13;81.78
68859;BME280;55864;49.238;8.092;2023-01-27T09:06:11;99984.06;;;1.05;81.96
68859;BME280;55864;49.238;8.092;2023-01-27T09:08:12;99988.47;;;1.03;82.33
68859;BME280;55864;49.238;8.092;2023-01-27T09:10:13;99986.50;;;1.08;82.59
68859;BME280;55864;49.238;8.092;2023-01-27T09:12:15;99991.13;;;1.02;81.75
68859;BME280;55864;49.238;8.092;2023-01-27T09:14:16;99987.50;;;1.06;82.38
68859;BME280;55864;49.238;8.092;2023-01-27T09:16:17;99988.19;;;1.09;82.23
68859;BME280;55864;49.238;8.092;2023-01-27T09:18:17;99991.66;;;1.08;81.94
68859;BME280;55864;49.238;8.092;2023-01-27T09:20:18;99992.75;;;1.04;81.50
68859;BME280;55864;49.238;8.092;2023-01-27T09:22:19;99997.19;;;1.01;81.55
68859;BME280;55864;49.238;8.092;2023-01-27T09:24:19;99997.25;;;0.99;80.94
68859;BME280;55864;49.238;8.092;2023-01-27T09:26:20;99999.16;;;0.95;81.57
68859;BME280;55864;49.238;8.092;2023-01-27T09:28:22;99992.31;;;0.94;83.23
68859;BME280;55864;49.238;8.092;2023-01-27T09:30:23;100011.13;;;0.98;83.13
68859;BME280;55864;49.238;8.092;2023-01-27T09:32:24;100009.22;;;1.02;83.24
68859;BME280;55864;49.238;8.092;2023-01-27T09:34:25;100009.22;;;1.02;82.95
68859;BME280;55864;49.238;8.092;2023-01-27T09:36:26;100010.06;;;1.02;83.90
68859;BME280;55864;49.238;8.092;2023-01-27T09:38:29;100005.88;;;1.00;82.88
68859;BME280;55864;49.238;8.092;2023-01-27T09:40:37;100006.72;;;1.00;84.19
68859;BME280;55864;49.238;8.092;2023-01-27T09:42:53;100019.56;;;1.02;83.05
68859;BME280;55864;49.238;8.092;2023-01-27T09:45:09;100026.41;;;1.03;83.38
68859;BME280;55864;49.238;8.092;2023-01-27T09:47:23;100029.78;;;1.05;84.46
68859;BME280;55864;49.238;8.092;2023-01-27T09:49:43;100028.22;;;1.01;82.97
68859;BME280;55864;49.238;8.092;2023-01-27T09:52:01;100030.69;;;1.04;83.97
68859;BME280;55864;49.238;8.092;2023-01-27T09:56:39;100026.38;;;1.04;83.21
68859;BME280;55864;49.238;8.092;2023-01-27T09:58:55;100028.03;;;1.05;83.89
68859;BME280;55864;49.238;8.092;2023-01-27T10:01:07;100026.13;;;1.09;84.24
68859;BME280;55864;49.238;8.092;2023-01-27T10:03:24;100027.09;;;1.06;83.32
68859;BME280;55864;49.238;8.092;2023-01-27T10:05:38;100030.53;;;1.07;82.37
68859;BME280;55864;49.238;8.092;2023-01-27T10:10:28;100023.91;;;1.01;82.91
68859;BME280;55864;49.238;8.092;2023-01-27T10:12:50;100023.97;;;1.00;81.88
68859;BME280;55864;49.238;8.092;2023-01-27T10:15:05;100017.97;;;0.99;82.29
68859;BME280;55864;49.238;8.092;2023-01-27T10:17:23;100019.50;;;1.03;82.98
68859;BME280;55864;49.238;8.092;2023-01-27T10:19:42;100014.19;;;1.06;82.36
68859;BME280;55864;49.238;8.092;2023-01-27T10:21:53;100015.03;;;1.07;81.58
68859;BME280;55864;49.238;8.092;2023-01-27T10:24:03;100012.34;;;1.08;82.42
68859;BME280;55864;49.238;8.092;2023-01-27T10:26:14;100015.78;;;1.09;81.96
68859;BME280;55864;49.238;8.092;2023-01-27T10:28:22;100007.84;;;1.13;82.16
68859;BME280;55864;49.238;8.092;2023-01-27T10:30:30;100003.28;;;1.18;81.75
68859;BME280;55864;49.238;8.092;2023-01-27T10:32:42;100007.50;;;1.21;82.99
68859;BME280;55864;49.238;8.092;2023-01-27T10:34:47;100007.41;;;1.22;83.52
68859;BME280;55864;49.238;8.092;2023-01-27T10:36:58;100007.22;;;1.27;83.54
68859;BME280;55864;49.238;8.092;2023-01-27T10:39:12;99998.38;;;1.31;82.97
68859;BME280;55864;49.238;8.092;2023-01-27T10:41:24;100005.09;;;1.35;82.04
68859;BME280;55864;49.238;8.092;2023-01-27T10:43:36;99992.84;;;1.38;82.79
68859;BME280;55864;49.238;8.092;2023-01-27T10:45:46;99991.75;;;1.44;82.41
68859;BME280;55864;49.238;8.092;2023-01-27T10:48:03;99989.75;;;1.49;84.73
68859;BME280;55864;49.238;8.092;2023-01-27T10:50:06;99996.25;;;1.57;85.19
68859;BME280;55864;49.238;8.092;2023-01-27T10:52:11;99991.78;;;1.61;84.76
68859;BME280;55864;49.238;8.092;2023-01-27T10:54:15;99989.03;;;1.64;84.04
68859;BME280;55864;49.238;8.092;2023-01-27T10:56:21;99992.47;;;1.64;83.52
68859;BME280;55864;49.238;8.092;2023-01-27T10:58:38;99989.94;;;1.63;82.44
68859;BME280;55864;49.238;8.092;2023-01-27T11:00:43;99989.94;;;1.63;82.20
68859;BME280;55864;49.238;8.092;2023-01-27T11:02:52;99991.53;;;1.65;82.39
68859;BME280;55864;49.238;8.092;2023-01-27T11:04:59;99987.91;;;1.69;82.06